createdAt,value
2023-05-02T00:04:11.884Z,10.01
2023-05-02T00:09:11.084Z,10.01
2023-05-02T00:14:11.988Z,10.01
2023-05-02T00:19:10.717Z,10.03
2023-05-02T00:24:10.782Z,10.05
2023-05-02T00:29:07.994Z,10.02
2023-05-02T00:34:08.015Z,10.06
2023-05-02T00:39:07.208Z,10.06
2023-05-02T00:44:06.855Z,10.03
2023-05-02T00:49:06.290Z,9.97
2023-05-02T00:54:06.001Z,9.89
2023-05-02T00:59:01.742Z,9.78
2023-05-02T01:04:02.046Z,9.75
2023-05-02T01:08:59.967Z,9.72
2023-05-02T01:13:59.661Z,9.68
2023-05-02T01:18:59.845Z,9.66
2023-05-02T01:23:47.856Z,9.68
2023-05-02T01:28:48.032Z,9.66
2023-05-02T01:33:47.540Z,9.68
2023-05-02T01:38:47.456Z,9.62
2023-05-02T01:43:45.100Z,9.6
2023-05-02T01:48:45.087Z,9.6
2023-05-02T01:53:45.942Z,9.58
2023-05-02T01:58:44.618Z,9.52
2023-05-02T02:03:44.773Z,9.47
2023-05-02T02:08:44.448Z,9.46
2023-05-02T02:13:45.576Z,9.49
2023-05-02T02:18:42.819Z,9.49
2023-05-02T02:23:41.978Z,9.52
2023-05-02T02:28:41.896Z,9.54
2023-05-02T02:33:41.191Z,9.5
2023-05-02T02:38:40.995Z,9.51
2023-05-02T02:43:40.749Z,9.51
2023-05-02T02:48:40.746Z,9.53
2023-05-02T02:53:38.274Z,9.56
2023-05-02T02:58:37.846Z,9.56
2023-05-02T03:00:41.062Z,9.55
2023-05-02T03:04:59.061Z,9.51
2023-05-02T03:09:57.582Z,9.47
2023-05-02T03:14:57.172Z,9.43
2023-05-02T03:19:56.239Z,9.35
2023-05-02T03:24:55.991Z,9.34
2023-05-02T03:29:56.841Z,9.3
2023-05-02T03:35:03.648Z,9.24
2023-05-02T03:40:03.584Z,9.21
2023-05-02T03:45:04.027Z,9.16
2023-05-02T03:50:01.911Z,9.06
2023-05-02T03:55:02.713Z,9.06
2023-05-02T03:59:59.990Z,9.03
2023-05-02T04:04:59.671Z,9
2023-05-02T04:10:01.230Z,8.95
2023-05-02T04:14:48.016Z,8.97
2023-05-02T04:19:47.621Z,9.02
2023-05-02T04:24:47.056Z,9.08
2023-05-02T04:29:46.893Z,9.12
2023-05-02T04:34:44.782Z,9.12
2023-05-02T04:39:44.523Z,9.1
2023-05-02T04:44:44.830Z,9.12
2023-05-02T04:49:44.349Z,9.17
2023-05-02T04:54:43.880Z,9.22
2023-05-02T04:58:58.748Z,9.22
2023-05-02T05:03:59.258Z,9.32
2023-05-02T05:08:58.712Z,9.38
2023-05-02T05:14:00.013Z,9.49
2023-05-02T05:18:56.466Z,9.62
2023-05-02T05:23:56.646Z,9.72
2023-05-02T05:28:55.867Z,9.8
2023-05-02T05:33:55.974Z,9.93
2023-05-02T05:39:04.044Z,10.03
2023-05-02T05:44:04.337Z,10.09
2023-05-02T05:49:04.367Z,10.18
2023-05-02T05:54:04.524Z,10.25
2023-05-02T05:59:04.442Z,10.3
2023-05-02T06:04:06.263Z,10.49
2023-05-02T06:09:03.535Z,10.54
2023-05-02T06:14:03.571Z,10.59
2023-05-02T06:19:04.026Z,10.64
2023-05-02T06:24:01.097Z,10.62
2023-05-02T06:29:00.738Z,10.62
2023-05-02T06:34:01.154Z,10.87
2023-05-02T06:38:59.288Z,11.06
2023-05-02T06:43:58.788Z,11.23
2023-05-02T06:48:58.790Z,11.39
2023-05-02T06:53:47.358Z,11.42
2023-05-02T06:58:46.913Z,11.46
2023-05-02T07:03:46.901Z,11.57
2023-05-02T07:08:46.421Z,11.79
2023-05-02T07:13:47.596Z,11.94
2023-05-02T07:18:45.028Z,12.21
2023-05-02T07:23:45.355Z,12.59
2023-05-02T07:28:46.599Z,12.73
2023-05-02T07:33:44.551Z,13.04
2023-05-02T07:38:43.949Z,13.2
2023-05-02T07:43:43.694Z,13.64
2023-05-02T07:48:43.200Z,14.03
2023-05-02T07:53:43.141Z,13.8
2023-05-02T07:58:43.223Z,13.36
2023-05-02T08:03:42.906Z,13.08
2023-05-02T08:08:43.937Z,12.98
2023-05-02T08:13:40.243Z,13.07
2023-05-02T08:18:40.152Z,13.12
2023-05-02T08:23:39.512Z,13.48
2023-05-02T08:28:39.899Z,14.33
2023-05-02T08:33:37.339Z,14.58
2023-05-02T08:38:37.047Z,14.05
2023-05-02T08:43:36.164Z,13.91
2023-05-02T08:48:38.018Z,13.86
2023-05-02T08:53:34.142Z,14.06
2023-05-02T08:58:34.340Z,14.1
2023-05-02T09:00:21.980Z,14.06
2023-05-02T09:05:01.081Z,13.83
2023-05-02T09:10:05.148Z,13.85
2023-05-02T09:15:04.878Z,14.35
2023-05-02T09:20:06.745Z,14.64
2023-05-02T09:25:03.672Z,14.77
2023-05-02T09:30:03.509Z,15.45
2023-05-02T09:35:04.164Z,16.01
2023-05-02T09:40:02.653Z,15.73
2023-05-02T09:45:03.076Z,15.52
2023-05-02T09:50:03.549Z,15.84
2023-05-02T09:55:02.110Z,15.98
2023-05-02T09:59:04.660Z,15.94
2023-05-02T10:04:04.449Z,15.94
2023-05-02T10:09:06.060Z,15.9
2023-05-02T10:14:03.030Z,15.82
2023-05-02T10:19:03.571Z,15.83
2023-05-02T10:24:02.485Z,16.39
2023-05-02T10:29:02.993Z,17.24
2023-05-02T10:34:03.262Z,17.12
2023-05-02T10:39:03.823Z,16.29
2023-05-02T10:44:00.658Z,15.58
2023-05-02T10:49:01.345Z,15.31
2023-05-02T10:53:59.878Z,15.11
2023-05-02T10:58:59.798Z,15.03
2023-05-02T11:03:59.523Z,15.59
2023-05-02T11:09:01.413Z,16.46
2023-05-02T11:13:58.769Z,16.9
2023-05-02T11:18:48.204Z,16.53
2023-05-02T11:23:47.816Z,15.91
2023-05-02T11:28:46.884Z,15.61
2023-05-02T11:33:46.528Z,15.45
2023-05-02T11:38:45.716Z,15.43
2023-05-02T11:43:45.859Z,15.67
2023-05-02T11:48:46.646Z,15.97
2023-05-02T11:53:43.749Z,16.62
2023-05-02T11:58:43.496Z,17.52
2023-05-02T12:03:45.727Z,17.87
2023-05-02T12:08:41.962Z,17.54
2023-05-02T12:13:41.993Z,17.9
2023-05-02T12:18:41.514Z,17.79
2023-05-02T12:23:40.782Z,17.62
2023-05-02T12:28:40.328Z,17.14
2023-05-02T12:33:40.189Z,17.34
2023-05-02T12:38:39.780Z,17.58
2023-05-02T12:43:41.104Z,17.57
2023-05-02T12:48:37.432Z,17.44
2023-05-02T12:53:37.344Z,17.27
2023-05-02T12:58:36.502Z,17.32
2023-05-02T13:03:36.531Z,17.84
2023-05-02T13:08:34.536Z,18.03
2023-05-02T13:13:33.877Z,17.62
2023-05-02T13:18:33.031Z,17.42
2023-05-02T13:23:34.486Z,17.4
2023-05-02T13:28:30.965Z,17.25
2023-05-02T13:33:30.699Z,16.99
2023-05-02T13:42:03.706Z,16.9
2023-05-02T13:48:02.374Z,17.11
2023-05-02T13:53:00.411Z,17.37
2023-05-02T13:58:00.734Z,18.04
2023-05-02T13:59:51.121Z,18.12
2023-05-02T14:04:23.525Z,18.46
2023-05-02T14:09:20.040Z,18.48
2023-05-02T14:14:19.763Z,18.43
2023-05-02T14:19:18.887Z,18.58
2023-05-02T14:24:18.424Z,19.27
2023-05-02T14:29:18.352Z,19.89
2023-05-02T14:34:17.780Z,20.19
2023-05-02T14:39:18.557Z,19.86
2023-05-02T14:44:17.283Z,19.07
2023-05-02T14:49:18.399Z,19.12
2023-05-02T14:54:14.677Z,19.6
2023-05-02T14:59:02.178Z,19.91
2023-05-02T15:04:06.396Z,19.81
2023-05-02T15:09:00.942Z,19.57
2023-05-02T15:14:00.912Z,19.77
2023-05-02T15:19:01.437Z,20.07
2023-05-02T15:23:59.742Z,19.84
2023-05-02T15:28:59.742Z,19.91
2023-05-02T15:34:01.504Z,20.12
2023-05-02T15:38:47.904Z,20.35
2023-05-02T15:43:47.867Z,20.41
2023-05-02T15:48:47.320Z,20.39
2023-05-02T15:53:47.216Z,20.11
2023-05-02T15:58:44.583Z,19.56
2023-05-02T16:03:44.456Z,19.46
2023-05-02T16:08:43.245Z,19.45
2023-05-02T16:13:42.699Z,19.45
2023-05-02T16:18:42.012Z,19.58
2023-05-02T16:23:41.781Z,19.5
2023-05-02T16:28:41.694Z,19.35
2023-05-02T16:33:41.255Z,19.12
2023-05-02T16:38:42.544Z,18.94
2023-05-02T16:43:39.050Z,18.61
2023-05-02T16:48:38.307Z,18.34
2023-05-02T16:53:38.293Z,18.18
2023-05-02T16:58:37.676Z,18.33
2023-05-02T17:03:37.432Z,18.75
2023-05-02T17:09:29.745Z,18.65
2023-05-02T17:13:36.240Z,18.62
2023-05-02T17:18:34.850Z,18.6
2023-05-02T17:23:35.309Z,18.52
2023-05-02T17:28:35.152Z,18.03
2023-05-02T17:33:32.391Z,17.75
2023-05-02T17:38:32.017Z,17.2
2023-05-02T17:43:32.126Z,16.74
2023-05-02T17:48:31.571Z,16.53
2023-05-02T17:53:30.652Z,16.29
2023-05-02T17:58:29.933Z,16.11
2023-05-02T18:00:16.918Z,16.04
2023-05-02T18:05:02.000Z,15.8
2023-05-02T18:09:59.606Z,15.54
2023-05-02T18:14:59.893Z,15.33
2023-05-02T18:20:00.010Z,15.08
2023-05-02T18:24:48.077Z,14.94
2023-05-02T18:29:47.990Z,14.71
2023-05-02T18:34:47.420Z,14.48
2023-05-02T18:39:46.539Z,14.21
2023-05-02T18:44:46.188Z,14.03
2023-05-02T18:49:45.448Z,13.84
2023-05-02T18:54:45.026Z,13.66
2023-05-02T18:59:01.717Z,13.46
2023-05-02T19:04:02.059Z,13.21
2023-05-02T19:09:00.908Z,12.96
2023-05-02T19:14:00.316Z,12.72
2023-05-02T19:18:59.480Z,12.46
2023-05-02T19:23:59.158Z,12.26
2023-05-02T19:28:58.111Z,12.09
2023-05-02T19:33:57.729Z,11.94
2023-05-02T19:38:58.698Z,11.97
2023-05-02T19:43:55.315Z,12.05
2023-05-02T19:48:55.291Z,12.13
2023-05-02T19:53:55.356Z,12.24
2023-05-02T19:59:04.263Z,12.23
2023-05-02T20:04:04.163Z,12.21
2023-05-02T20:09:03.940Z,12.08
2023-05-02T20:14:04.328Z,11.96
2023-05-02T20:19:01.485Z,11.87
2023-05-02T20:24:01.574Z,11.75
2023-05-02T20:28:59.463Z,11.65
2023-05-02T20:34:00.433Z,11.57
2023-05-02T20:39:02.000Z,11.49
2023-05-02T20:43:59.086Z,11.4
2023-05-02T20:48:58.983Z,11.28
2023-05-02T20:53:47.953Z,11.2
2023-05-02T20:58:45.855Z,11.08
2023-05-02T21:03:45.625Z,10.92
2023-05-02T21:08:45.781Z,10.75
2023-05-02T21:13:45.092Z,10.66
2023-05-02T21:18:43.442Z,10.55
2023-05-02T21:23:43.348Z,10.47
2023-05-02T21:28:42.758Z,10.35
2023-05-02T21:33:42.605Z,10.26
2023-05-02T21:38:40.157Z,10.13
2023-05-02T21:43:39.916Z,9.99
2023-05-02T21:48:40.205Z,9.82
2023-05-02T21:53:39.477Z,9.63
2023-05-02T21:58:38.862Z,9.42
2023-05-02T22:03:38.495Z,9.2
2023-05-02T22:08:37.477Z,8.97
2023-05-02T22:13:37.575Z,8.79
2023-05-02T22:18:35.408Z,8.64
2023-05-02T22:23:34.298Z,8.51
2023-05-02T22:28:34.075Z,8.39
2023-05-02T22:33:35.298Z,8.26
2023-05-02T22:38:31.494Z,8.1
2023-05-02T22:43:31.357Z,7.96
2023-05-02T22:48:31.936Z,7.85
2023-05-02T22:53:30.744Z,7.75
2023-05-02T22:58:30.642Z,7.64
2023-05-02T23:00:17.084Z,7.61
2023-05-02T23:05:02.818Z,7.51
2023-05-02T23:10:00.777Z,7.46
2023-05-02T23:15:00.766Z,7.43
2023-05-02T23:20:00.886Z,7.37
2023-05-02T23:24:59.685Z,7.34
2023-05-02T23:30:00.033Z,7.25
2023-05-02T23:34:59.738Z,7.17
2023-05-02T23:40:00.404Z,7.09
2023-05-02T23:44:47.141Z,7.02
2023-05-02T23:49:46.262Z,6.94
2023-05-02T23:54:46.144Z,6.94
2023-05-02T23:59:01.703Z,6.9
